Historique des mesures à Cassis (13260), France
Quotidien Résumé Juin 7, 2017 Unités:  US    Métrique   Métrique/US
« Précédent (Jour)
Suivant (Jour) »
Quotidien Hebdomadaire Mensuel Annuel Période au choix
  Maximum: Minimum: Moyenne:
Température: 32 °F 61.5 °F 66.6 °F
Point de rosée: 32 °F 40.8 °F 42.3 °F
Humidité: Humidity % 31 % 39 %
Vitesse du vent: WindSpeedKMH mph 4.0 mph 15.6 mph
Rafales: WindSpeedGustKMH mph - -
Vent:- - SSE
Pression: 0 in 29.8 in -
Précipitations: 0 in    
Historical Graphs
 
 
Mesures pour : Juin 7, 2017
Heure Temperature Point de rosée Pression Vent Vitesse du vent Rafales Humidité Pluie (par heure) Conditions
32 °F 32 °F 0 in Calm     Humidity % 0 in SoftwareType W/m2
00:10 67.8 °F 44.4 °F 29.8 in NNE 15.4 mph 32.8 mph 43 % 0 in open2300-1.11 W/m2
01:10 66.6 °F 43.9 °F 29.9 in North 21.2 mph 21.2 mph 44 % 0 in open2300-1.11 W/m2
02:10 65.1 °F 43.2 °F 29.9 in NNW 8.2 mph 13.7 mph 45 % 0 in open2300-1.11 W/m2
03:10 63.9 °F 44.2 °F 29.9 in NNE 14.8 mph 14.8 mph 49 % 0 in open2300-1.11 W/m2
04:10 63 °F 43.5 °F 29.9 in NNE 16.3 mph 36.7 mph 49 % 0 in open2300-1.11 W/m2
05:10 62.2 °F 43.9 °F 29.9 in NW 13.4 mph 18.3 mph 51 % 0 in open2300-1.11 W/m2
06:10 61.5 °F 43.7 °F 29.9 in West 16.6 mph 23.8 mph 52 % 0 in open2300-1.11 W/m2
07:10 61.7 °F 44.8 °F 29.9 in WSW 9.3 mph 13.0 mph 54 % 0 in open2300-1.11 W/m2
08:10 63.7 °F 44.8 °F 29.9 in North 14.0 mph 39.3 mph 50 % 0 in open2300-1.11 W/m2
09:10 63.7 °F 43.5 °F 29.9 in North 10.5 mph 28.5 mph 48 % 0 in open2300-1.11 W/m2
10:10 67.6 °F 43.2 °F 30 in NNE 9.7 mph 18.3 mph 41 % 0 in open2300-1.11 W/m2
11:10 70.3 °F 42.6 °F 30 in North 21.9 mph 36.4 mph 37 % 0 in open2300-1.11 W/m2
12:10 70.9 °F 43.2 °F 29.9 in NW 13.7 mph 26.5 mph 37 % 0 in open2300-1.11 W/m2
14:10 72.7 °F 41.7 °F 29.9 in WNW 33.8 mph 33.8 mph 33 % 0 in open2300-1.11 W/m2
15:10 72.9 °F 41.2 °F 29.9 in NW 27.0 mph 37.8 mph 32 % 0 in open2300-1.11 W/m2
16:10 73.4 °F 40.8 °F 29.9 in NNW 13.4 mph 17.2 mph 31 % 0 in open2300-1.11 W/m2
17:10 74.5 °F 41.7 °F 29.9 in NW 31.7 mph 31.7 mph 31 % 0 in open2300-1.11 W/m2
18:11 73.4 °F 40.8 °F 29.9 in NNE 13.4 mph 27.0 mph 31 % 0 in open2300-1.11 W/m2
19:10 72.7 °F 41 °F 29.9 in North 17.2 mph 21.6 mph 32 % 0 in open2300-1.11 W/m2
20:10 71.8 °F 41 °F 29.9 in NNW 16.3 mph 32.0 mph 33 % 0 in open2300-1.11 W/m2
21:11 70.2 °F 41 °F 29.9 in NNW 4.0 mph 8.2 mph 35 % 0 in open2300-1.11 W/m2
22:10 68.5 °F 41.2 °F 29.9 in NNE 15.4 mph 16.9 mph 37 % 0 in open2300-1.11 W/m2
23:10 67.1 °F 41.2 °F 29.9 in NW 16.6 mph 27.0 mph 39 % 0 in open2300-1.11 W/m2
Observations météo à CASSIS
WU-History script by Weather Underground - 1 mb